CA02 weather

CLOSED Patterson Airport
Patterson, California, United States

Public forecast

Using degrees Fahrenheit for public forecast. Weather courtesy of forecast.io.

Closest aviation weather report (METAR) to Patterson Airport

Closest report is Modesto City Co-Harry Sham Field, 13.9 nm (25.8 km) NE. Retrieved 2019/10/18 16:53 UTC (23 minutes ago):

KMOD 181653Z 02006KT 10SM CLR 17/07 A3008 RMK AO2 SLP184 T01670067

Closest aviation forecast (TAF) to Patterson Airport

Closest forecast is Modesto City Co-Harry Sham Field, 13.9 nm (25.8 km) NE. Retrieved 2019/10/18 12:30 UTC (5 hours ago):

TAF TAF KMOD 181125Z 1812/1912 31010KT P6SM SKC FM181600 32005KT P6SM SCT150 BKN200 FM190000 32009KT P6SM SCT120 FM190300 31006KT P6SM SKC